createdAt,value
2023-02-23T00:01:39.644Z,97.35
2023-02-23T00:04:07.247Z,98.51
2023-02-23T00:06:36.683Z,98.30
2023-02-23T00:09:10.784Z,99.26
2023-02-23T00:11:39.749Z,99.85
2023-02-23T00:14:08.298Z,99.27
2023-02-23T00:16:37.483Z,99.28
2023-02-23T00:19:08.034Z,98.50
2023-02-23T00:21:36.091Z,98.94
2023-02-23T00:24:04.846Z,98.88
2023-02-23T00:26:35.197Z,98.89
2023-02-23T00:29:06.444Z,100.00
2023-02-23T00:31:35.073Z,100.00
2023-02-23T00:34:04.511Z,100.00
2023-02-23T00:36:33.375Z,99.93
2023-02-23T00:39:03.809Z,100.00
2023-02-23T00:41:31.412Z,100.00
2023-02-23T00:44:00.619Z,100.00
2023-02-23T00:46:31.009Z,100.00
2023-02-23T00:49:00.210Z,100.00
2023-02-23T00:51:30.930Z,99.51
2023-02-23T00:53:59.456Z,100.00
2023-02-23T00:56:28.324Z,100.00
2023-02-23T00:58:56.551Z,100.00
2023-02-23T01:01:25.007Z,100.00
2023-02-23T01:03:54.190Z,100.00
2023-02-23T01:06:21.838Z,100.00
2023-02-23T01:08:52.090Z,100.00
2023-02-23T01:11:22.722Z,100.00
2023-02-23T01:13:53.010Z,100.00
2023-02-23T01:16:23.086Z,100.00
2023-02-23T01:18:50.666Z,100.00
2023-02-23T01:21:21.136Z,100.00
2023-02-23T01:23:48.917Z,100.00
2023-02-23T01:26:19.096Z,100.00
2023-02-23T01:28:50.082Z,100.00
2023-02-23T01:31:18.279Z,100.00
2023-02-23T01:33:46.398Z,100.00
2023-02-23T01:36:14.147Z,100.00
2023-02-23T01:38:43.135Z,100.00
2023-02-23T01:41:10.933Z,100.00
2023-02-23T01:43:57.122Z,100.00
2023-02-23T01:46:24.875Z,100.00
2023-02-23T01:48:53.091Z,100.00
2023-02-23T01:51:22.825Z,100.00
2023-02-23T01:53:55.497Z,100.00
2023-02-23T01:56:25.842Z,100.00
2023-02-23T01:58:54.640Z,100.00
2023-02-23T02:01:23.275Z,100.00
2023-02-23T02:03:53.217Z,100.00
2023-02-23T02:06:23.516Z,100.00
2023-02-23T02:08:55.218Z,100.00
2023-02-23T02:11:36.159Z,100.00
2023-02-23T02:14:12.711Z,100.00
2023-02-23T02:17:02.235Z,100.00
2023-02-23T02:20:14.988Z,100.00
2023-02-23T02:22:54.176Z,100.00
2023-02-23T02:25:38.325Z,100.00
2023-02-23T02:28:29.627Z,100.00
2023-02-23T02:31:17.904Z,100.00
2023-02-23T02:34:15.921Z,100.00
2023-02-23T02:37:02.450Z,100.00
2023-02-23T02:39:38.077Z,100.00
2023-02-23T02:42:12.694Z,100.00
2023-02-23T02:44:44.177Z,100.00
2023-02-23T02:47:14.336Z,100.00
2023-02-23T02:49:47.070Z,100.00
2023-02-23T02:52:20.367Z,100.00
2023-02-23T02:54:53.194Z,100.00
2023-02-23T02:57:21.531Z,100.00
2023-02-23T03:00:08.344Z,100.00
2023-02-23T03:02:55.841Z,100.00
2023-02-23T03:05:44.135Z,100.00
2023-02-23T03:08:38.291Z,100.00
2023-02-23T03:11:25.042Z,100.00
2023-02-23T03:14:21.491Z,100.00
2023-02-23T03:17:11.819Z,100.00
2023-02-23T03:20:06.861Z,100.00
2023-02-23T03:22:57.422Z,100.00
2023-02-23T03:25:48.063Z,100.00
2023-02-23T03:28:35.350Z,100.00
2023-02-23T03:31:26.029Z,100.00
2023-02-23T03:34:18.680Z,100.00
2023-02-23T03:37:06.612Z,100.00
2023-02-23T03:39:55.493Z,100.00
2023-02-23T03:42:46.707Z,100.00
2023-02-23T03:45:35.728Z,100.00
2023-02-23T03:48:22.230Z,100.00
2023-02-23T03:51:11.133Z,100.00
2023-02-23T03:54:00.687Z,100.00
2023-02-23T03:56:47.120Z,100.00
2023-02-23T03:59:36.112Z,100.00
2023-02-23T04:02:21.893Z,100.00
2023-02-23T04:05:07.795Z,100.00
2023-02-23T04:07:53.637Z,100.00
2023-02-23T04:10:39.061Z,100.00
2023-02-23T04:13:14.753Z,100.00
2023-02-23T04:15:47.295Z,100.00
2023-02-23T04:18:17.000Z,100.00
2023-02-23T04:20:44.699Z,100.00
2023-02-23T04:23:12.510Z,100.00
2023-02-23T04:25:40.246Z,100.00
2023-02-23T04:28:07.852Z,100.00
2023-02-23T04:30:35.490Z,100.00
2023-02-23T04:33:04.520Z,100.00
2023-02-23T04:35:32.155Z,100.00
2023-02-23T04:37:59.851Z,100.00
2023-02-23T04:40:28.330Z,100.00
2023-02-23T04:42:56.481Z,100.00
2023-02-23T04:45:24.851Z,100.00
2023-02-23T04:47:52.961Z,100.00
2023-02-23T04:50:22.152Z,100.00
2023-02-23T04:52:50.288Z,100.00
2023-02-23T04:55:19.785Z,100.00
2023-02-23T04:57:48.250Z,100.00
2023-02-23T05:00:16.695Z,100.00
2023-02-23T05:02:44.831Z,100.00
2023-02-23T05:05:13.074Z,100.00
2023-02-23T05:07:42.059Z,100.00
2023-02-23T05:10:11.304Z,100.00
2023-02-23T05:12:38.925Z,100.00
2023-02-23T05:15:07.774Z,100.00
2023-02-23T05:17:35.397Z,100.00
2023-02-23T05:20:03.018Z,100.00
2023-02-23T05:22:30.591Z,100.00
2023-02-23T05:24:59.509Z,100.00
2023-02-23T05:27:27.149Z,100.00
2023-02-23T05:29:54.753Z,100.00
2023-02-23T05:32:22.425Z,100.00
2023-02-23T05:34:49.994Z,100.00
2023-02-23T05:37:18.034Z,100.00
2023-02-23T05:39:45.624Z,100.00
2023-02-23T05:42:14.542Z,100.00
2023-02-23T05:44:42.088Z,100.00
2023-02-23T05:47:10.768Z,100.00
2023-02-23T05:49:38.513Z,100.00
2023-02-23T05:52:06.204Z,100.00
2023-02-23T05:54:33.890Z,100.00
2023-02-23T05:57:01.954Z,100.00
2023-02-23T05:59:31.165Z,100.00
2023-02-23T06:05:43.913Z,100.00
2023-02-23T06:08:12.097Z,100.00
2023-02-23T06:10:39.700Z,100.00
2023-02-23T06:13:07.285Z,100.00
2023-02-23T06:15:37.370Z,100.00
2023-02-23T06:18:05.222Z,100.00
2023-02-23T06:20:32.898Z,100.00
2023-02-23T06:23:00.483Z,100.00
2023-02-23T06:25:28.074Z,100.00
2023-02-23T06:27:55.738Z,100.00
2023-02-23T06:30:23.738Z,100.00
2023-02-23T06:32:52.878Z,100.00
2023-02-23T06:35:20.635Z,100.00
2023-02-23T06:37:48.237Z,100.00
2023-02-23T06:40:16.039Z,100.00
2023-02-23T06:42:43.599Z,100.00
2023-02-23T06:45:13.270Z,100.00
2023-02-23T06:47:41.047Z,100.00
2023-02-23T06:50:11.701Z,100.00
2023-02-23T06:52:39.337Z,100.00
2023-02-23T06:55:08.567Z,100.00
2023-02-23T06:57:36.216Z,100.00
2023-02-23T07:00:04.638Z,100.00
2023-02-23T07:02:32.375Z,100.00
2023-02-23T07:04:59.956Z,100.00
2023-02-23T07:07:28.992Z,100.00
2023-02-23T07:09:56.573Z,100.00
2023-02-23T07:12:24.164Z,100.00
2023-02-23T07:14:51.841Z,100.00
2023-02-23T07:17:19.679Z,100.00
2023-02-23T07:19:47.257Z,100.00
2023-02-23T07:22:14.953Z,100.00
2023-02-23T07:24:43.872Z,100.00
2023-02-23T07:27:11.484Z,100.00
2023-02-23T07:29:39.110Z,100.00
2023-02-23T07:32:07.025Z,100.00
2023-02-23T07:34:34.709Z,100.00
2023-02-23T07:37:02.311Z,100.00
2023-02-23T07:39:31.039Z,100.00
2023-02-23T07:42:00.067Z,100.00
2023-02-23T07:44:27.718Z,100.00
2023-02-23T07:46:55.352Z,100.00
2023-02-23T07:49:22.959Z,100.00
2023-02-23T07:51:50.562Z,100.00
2023-02-23T07:54:18.228Z,100.00
2023-02-23T07:56:45.874Z,100.00
2023-02-23T07:59:15.311Z,100.00
2023-02-23T08:01:42.909Z,100.00
2023-02-23T08:04:10.524Z,100.00
2023-02-23T08:06:38.190Z,100.00
2023-02-23T08:09:06.440Z,100.00
2023-02-23T08:11:34.053Z,100.00
2023-02-23T08:14:01.718Z,100.00
2023-02-23T08:16:32.242Z,100.00
2023-02-23T08:19:00.811Z,100.00
2023-02-23T08:21:30.014Z,100.00
2023-02-23T08:23:58.074Z,100.00
2023-02-23T08:26:26.027Z,100.00
2023-02-23T08:28:53.735Z,100.00
2023-02-23T08:31:24.441Z,100.00
2023-02-23T08:33:54.657Z,100.00
2023-02-23T08:36:22.881Z,100.00
2023-02-23T08:38:50.686Z,100.00
2023-02-23T08:41:18.894Z,100.00
2023-02-23T08:43:46.630Z,100.00
2023-02-23T08:46:14.805Z,100.00
2023-02-23T08:48:42.451Z,100.00
2023-02-23T08:51:11.367Z,100.00
2023-02-23T08:53:38.968Z,100.00
2023-02-23T08:56:07.849Z,100.00
2023-02-23T08:58:36.301Z,100.00
2023-02-23T09:01:04.609Z,100.00
2023-02-23T09:03:32.947Z,100.00
2023-02-23T09:06:07.881Z,100.00
2023-02-23T09:08:36.974Z,100.00
2023-02-23T09:11:04.685Z,100.00
2023-02-23T09:13:32.389Z,100.00
2023-02-23T09:16:00.194Z,100.00
2023-02-23T09:18:29.520Z,100.00
2023-02-23T09:20:57.447Z,100.00
2023-02-23T09:23:25.649Z,100.00
2023-02-23T09:25:54.622Z,100.00
2023-02-23T09:28:22.241Z,100.00
2023-02-23T09:30:49.875Z,100.00
2023-02-23T09:33:18.195Z,100.00
2023-02-23T09:35:45.816Z,100.00
2023-02-23T09:38:13.385Z,100.00
2023-02-23T09:40:47.359Z,100.00
2023-02-23T09:43:21.115Z,100.00
2023-02-23T09:45:50.751Z,100.00
2023-02-23T09:48:20.606Z,100.00
2023-02-23T09:50:50.528Z,100.00
2023-02-23T09:53:29.712Z,100.00
2023-02-23T09:55:58.419Z,100.00
2023-02-23T09:58:28.857Z,100.00
2023-02-23T10:01:20.994Z,100.00
2023-02-23T10:03:53.545Z,100.00
2023-02-23T10:06:21.756Z,100.00
2023-02-23T10:08:55.931Z,100.00
2023-02-23T10:11:27.143Z,100.00
2023-02-23T10:14:09.876Z,100.00
2023-02-23T10:16:45.567Z,100.00
2023-02-23T10:19:16.762Z,100.00
2023-02-23T10:21:56.382Z,100.00
2023-02-23T10:24:27.299Z,100.00
2023-02-23T10:26:56.807Z,100.00
2023-02-23T10:29:28.533Z,100.00
2023-02-23T10:31:58.931Z,100.00
2023-02-23T10:34:28.945Z,99.28
2023-02-23T10:37:00.543Z,100.00
2023-02-23T10:39:28.876Z,99.17
2023-02-23T10:41:58.035Z,96.40
2023-02-23T10:44:28.565Z,96.16
2023-02-23T10:46:58.066Z,95.66
2023-02-23T10:49:30.342Z,94.35
2023-02-23T10:52:02.829Z,94.77
2023-02-23T10:54:45.682Z,93.91
2023-02-23T10:57:20.588Z,95.88
2023-02-23T11:00:04.130Z,94.47
2023-02-23T11:02:31.942Z,96.67
2023-02-23T11:05:01.087Z,95.29
2023-02-23T11:07:31.145Z,92.62
2023-02-23T11:09:59.403Z,92.36
2023-02-23T11:12:29.612Z,94.13
2023-02-23T11:14:59.996Z,93.14
2023-02-23T11:17:30.776Z,94.38
2023-02-23T11:20:04.359Z,91.93
2023-02-23T11:22:33.760Z,88.81
2023-02-23T11:25:06.767Z,90.75
2023-02-23T11:27:34.903Z,90.10
2023-02-23T11:30:07.240Z,90.25
2023-02-23T11:32:43.171Z,86.76
2023-02-23T11:35:28.488Z,88.23
2023-02-23T11:37:56.514Z,88.22
2023-02-23T11:40:27.169Z,88.18
2023-02-23T11:42:56.868Z,89.27
2023-02-23T11:45:27.938Z,89.81
2023-02-23T11:47:58.677Z,88.77
2023-02-23T11:50:28.795Z,87.91
2023-02-23T11:53:03.328Z,88.40
2023-02-23T11:55:32.931Z,86.36
2023-02-23T11:58:11.882Z,87.97
2023-02-23T12:00:41.356Z,87.93
2023-02-23T12:03:13.871Z,89.08
2023-02-23T12:05:41.532Z,88.62
2023-02-23T12:08:14.328Z,89.80
2023-02-23T12:10:43.658Z,89.09
2023-02-23T12:13:25.919Z,86.56
2023-02-23T12:15:58.852Z,87.61
2023-02-23T12:18:40.253Z,88.26
2023-02-23T12:21:16.942Z,87.13
2023-02-23T12:23:49.946Z,85.78
2023-02-23T12:26:22.716Z,80.83
2023-02-23T12:28:54.020Z,82.63
2023-02-23T12:31:28.313Z,83.56
2023-02-23T12:33:59.013Z,83.71
2023-02-23T12:36:31.390Z,81.64
2023-02-23T12:39:02.119Z,81.32
2023-02-23T12:41:36.560Z,81.88
2023-02-23T12:44:13.356Z,81.65
2023-02-23T12:46:47.553Z,80.98
2023-02-23T12:49:20.402Z,80.56
2023-02-23T12:51:52.648Z,79.79
2023-02-23T12:54:20.217Z,79.18
2023-02-23T12:57:08.985Z,80.69
2023-02-23T13:00:00.662Z,79.15
2023-02-23T13:02:31.276Z,78.51
2023-02-23T13:05:06.866Z,79.17
2023-02-23T13:07:42.722Z,79.34
2023-02-23T13:10:19.976Z,80.53
2023-02-23T13:12:55.912Z,79.94
2023-02-23T13:15:28.086Z,79.78
2023-02-23T13:17:59.124Z,78.63
2023-02-23T13:20:33.705Z,79.18
2023-02-23T13:23:10.835Z,78.08
2023-02-23T13:25:44.524Z,77.94
2023-02-23T13:28:19.168Z,75.08
2023-02-23T13:30:47.706Z,75.72
2023-02-23T13:33:34.958Z,75.04
2023-02-23T13:36:06.705Z,76.21
2023-02-23T13:38:42.136Z,75.92
2023-02-23T13:41:19.235Z,77.04
2023-02-23T13:43:52.205Z,72.08
2023-02-23T13:46:25.760Z,72.58
2023-02-23T13:49:01.758Z,71.51
2023-02-23T13:51:36.236Z,73.82
2023-02-23T13:54:07.762Z,74.13
2023-02-23T13:56:42.315Z,74.48
2023-02-23T13:59:22.649Z,72.94
2023-02-23T14:01:53.209Z,73.56
2023-02-23T14:04:25.436Z,75.64
2023-02-23T14:06:56.770Z,74.75
2023-02-23T14:09:29.206Z,73.01
2023-02-23T14:12:03.354Z,74.07
2023-02-23T14:14:43.264Z,72.42
2023-02-23T14:17:50.530Z,73.01
2023-02-23T14:20:45.590Z,73.54
2023-02-23T14:23:50.182Z,73.81
2023-02-23T14:26:34.160Z,74.15
2023-02-23T14:29:22.094Z,73.62
2023-02-23T14:32:01.471Z,71.46
2023-02-23T14:34:48.214Z,72.17
2023-02-23T14:37:21.947Z,72.81
2023-02-23T14:39:51.621Z,72.11
2023-02-23T14:42:23.203Z,72.10
2023-02-23T14:44:52.591Z,73.47
2023-02-23T14:47:22.300Z,73.14
2023-02-23T14:49:52.021Z,73.79
2023-02-23T14:52:24.546Z,73.70
2023-02-23T14:54:52.962Z,72.93
2023-02-23T14:57:22.658Z,72.72
2023-02-23T14:59:55.569Z,73.44
2023-02-23T15:02:25.118Z,72.15
2023-02-23T15:04:52.841Z,72.35
2023-02-23T15:07:28.000Z,72.55
2023-02-23T15:09:57.300Z,73.62
2023-02-23T15:12:28.450Z,72.25
2023-02-23T15:14:58.606Z,73.53
2023-02-23T15:17:27.855Z,74.50
2023-02-23T15:20:09.586Z,74.61
2023-02-23T15:22:44.309Z,73.49
2023-02-23T15:25:16.267Z,75.25
2023-02-23T15:27:45.714Z,75.64
2023-02-23T15:30:27.662Z,75.91
2023-02-23T15:33:03.446Z,76.15
2023-02-23T15:35:31.697Z,76.66
2023-02-23T15:38:13.719Z,75.22
2023-02-23T15:40:42.157Z,76.56
2023-02-23T15:43:10.293Z,77.02
2023-02-23T15:45:42.681Z,77.24
2023-02-23T15:48:17.198Z,76.99
2023-02-23T15:50:50.173Z,77.66
2023-02-23T15:53:25.522Z,76.96
2023-02-23T15:56:00.717Z,77.80
2023-02-23T15:58:30.898Z,76.67
2023-02-23T16:00:59.937Z,76.39
2023-02-23T16:03:31.657Z,75.96
2023-02-23T16:06:05.374Z,76.99
2023-02-23T16:08:36.874Z,77.39
2023-02-23T16:11:11.937Z,77.39
2023-02-23T16:13:43.926Z,77.10
2023-02-23T16:16:19.046Z,78.20
2023-02-23T16:18:49.102Z,79.03
2023-02-23T16:21:19.000Z,78.96
2023-02-23T16:23:49.314Z,78.52
2023-02-23T16:26:24.231Z,79.74
2023-02-23T16:28:57.548Z,79.83
2023-02-23T16:31:28.175Z,80.16
2023-02-23T16:33:59.836Z,79.99
2023-02-23T16:36:37.848Z,80.93
2023-02-23T16:39:11.386Z,80.30
2023-02-23T16:41:39.188Z,82.23
2023-02-23T16:44:08.589Z,83.01
2023-02-23T16:46:57.062Z,83.54
2023-02-23T16:49:24.644Z,84.64
2023-02-23T16:51:52.582Z,85.19
2023-02-23T16:54:21.526Z,86.53
2023-02-23T16:56:49.429Z,86.36
2023-02-23T16:59:18.820Z,86.62
2023-02-23T17:01:47.204Z,86.63
2023-02-23T17:04:16.275Z,88.26
2023-02-23T17:06:44.450Z,88.81
2023-02-23T17:09:13.020Z,89.00
2023-02-23T17:11:42.312Z,90.02
2023-02-23T17:14:11.825Z,90.72
2023-02-23T17:16:39.485Z,89.88
2023-02-23T17:19:07.273Z,90.28
2023-02-23T17:21:34.858Z,92.46
2023-02-23T17:24:03.738Z,91.64
2023-02-23T17:26:31.398Z,92.59
2023-02-23T17:29:00.734Z,93.11
2023-02-23T17:31:28.880Z,93.45
2023-02-23T17:33:57.980Z,93.74
2023-02-23T17:36:27.459Z,93.70
2023-02-23T17:38:58.623Z,93.47
2023-02-23T17:41:27.090Z,93.47
2023-02-23T17:43:54.885Z,92.77
2023-02-23T17:46:24.852Z,94.43
2023-02-23T17:48:55.996Z,95.02
2023-02-23T17:51:24.020Z,95.49
2023-02-23T17:53:51.697Z,94.83
2023-02-23T17:56:20.205Z,95.27
2023-02-23T17:58:48.436Z,94.94
2023-02-23T18:01:16.276Z,96.60
2023-02-23T18:03:45.315Z,98.30
2023-02-23T18:06:14.115Z,99.81
2023-02-23T18:08:43.018Z,99.27
2023-02-23T18:11:11.073Z,99.35
2023-02-23T18:13:39.147Z,100.00
2023-02-23T18:16:09.343Z,100.00
2023-02-23T18:18:37.304Z,100.00
2023-02-23T18:21:12.328Z,100.00
2023-02-23T18:23:39.994Z,100.00
2023-02-23T18:26:09.077Z,100.00
2023-02-23T18:28:38.654Z,100.00
2023-02-23T18:31:06.625Z,100.00
2023-02-23T18:33:35.871Z,100.00
2023-02-23T18:36:04.131Z,100.00
2023-02-23T18:38:33.133Z,100.00
2023-02-23T18:41:00.738Z,100.00
2023-02-23T18:43:28.346Z,100.00
2023-02-23T18:45:56.089Z,100.00
2023-02-23T18:48:23.705Z,100.00
2023-02-23T18:50:56.575Z,100.00
2023-02-23T18:53:24.185Z,100.00
2023-02-23T18:55:53.134Z,100.00
2023-02-23T18:58:20.801Z,100.00
2023-02-23T19:00:48.422Z,100.00
2023-02-23T19:03:16.122Z,100.00
2023-02-23T19:05:52.991Z,100.00
2023-02-23T19:08:20.875Z,100.00
2023-02-23T19:10:48.631Z,100.00
2023-02-23T19:13:21.943Z,100.00
2023-02-23T19:15:50.236Z,100.00
2023-02-23T19:18:17.862Z,100.00
2023-02-23T19:20:45.487Z,100.00
2023-02-23T19:23:13.444Z,100.00
2023-02-23T19:25:41.181Z,100.00
2023-02-23T19:28:09.794Z,100.00
2023-02-23T19:30:39.803Z,100.00
2023-02-23T19:33:08.136Z,100.00
2023-02-23T19:35:35.848Z,100.00
2023-02-23T19:38:03.842Z,100.00
2023-02-23T19:40:31.499Z,100.00
2023-02-23T19:42:59.110Z,100.00
2023-02-23T19:45:26.817Z,100.00
2023-02-23T19:47:56.172Z,100.00
2023-02-23T19:50:23.786Z,100.00
2023-02-23T19:52:51.415Z,100.00
2023-02-23T19:55:20.464Z,100.00
2023-02-23T19:57:48.122Z,100.00
2023-02-23T20:00:16.445Z,100.00
2023-02-23T20:02:44.134Z,100.00
2023-02-23T20:05:14.577Z,100.00
2023-02-23T20:07:42.589Z,100.00
2023-02-23T20:10:16.073Z,100.00
2023-02-23T20:12:43.886Z,100.00
2023-02-23T20:15:14.694Z,100.00
2023-02-23T20:17:42.452Z,100.00
2023-02-23T20:20:12.149Z,100.00
2023-02-23T20:22:44.676Z,100.00
2023-02-23T20:25:15.970Z,100.00
2023-02-23T20:27:44.432Z,100.00
2023-02-23T20:30:13.545Z,100.00
2023-02-23T20:32:41.535Z,100.00
2023-02-23T20:35:11.321Z,100.00
2023-02-23T20:37:38.956Z,100.00
2023-02-23T20:40:15.766Z,100.00
2023-02-23T20:42:44.501Z,100.00
2023-02-23T20:45:14.216Z,100.00
2023-02-23T20:47:42.392Z,100.00
2023-02-23T20:50:12.763Z,100.00
2023-02-23T20:52:40.549Z,100.00
2023-02-23T20:55:10.870Z,100.00
2023-02-23T20:57:38.546Z,100.00
2023-02-23T21:00:10.600Z,100.00
2023-02-23T21:02:38.953Z,100.00
2023-02-23T21:05:10.208Z,100.00
2023-02-23T21:07:38.143Z,100.00
2023-02-23T21:10:07.733Z,100.00
2023-02-23T21:12:36.781Z,100.00
2023-02-23T21:15:05.788Z,100.00
2023-02-23T21:17:33.423Z,100.00
2023-02-23T21:20:02.275Z,100.00
2023-02-23T21:22:29.862Z,100.00
2023-02-23T21:25:00.388Z,100.00
2023-02-23T21:27:28.062Z,100.00
2023-02-23T21:29:57.066Z,100.00
2023-02-23T21:32:27.069Z,100.00
2023-02-23T21:34:54.749Z,100.00
2023-02-23T21:37:22.427Z,100.00
2023-02-23T21:39:50.135Z,100.00
2023-02-23T21:42:22.981Z,100.00
2023-02-23T21:44:51.503Z,100.00
2023-02-23T21:47:20.439Z,100.00
2023-02-23T21:49:49.354Z,100.00
2023-02-23T21:52:17.318Z,100.00
2023-02-23T21:54:49.951Z,100.00
2023-02-23T21:57:17.950Z,100.00
2023-02-23T21:59:45.585Z,100.00
2023-02-23T22:02:13.791Z,100.00
2023-02-23T22:04:42.771Z,100.00
2023-02-23T22:07:10.366Z,100.00
2023-02-23T22:09:37.965Z,100.00
2023-02-23T22:12:07.626Z,100.00
2023-02-23T22:14:35.614Z,100.00
2023-02-23T22:17:06.311Z,100.00
2023-02-23T22:19:34.223Z,100.00
2023-02-23T22:22:03.234Z,100.00
2023-02-23T22:24:31.602Z,100.00
2023-02-23T22:27:00.876Z,100.00
2023-02-23T22:29:28.599Z,100.00
2023-02-23T22:31:56.314Z,100.00
2023-02-23T22:34:24.212Z,100.00
2023-02-23T22:36:51.942Z,100.00
2023-02-23T22:39:20.951Z,100.00
2023-02-23T22:41:49.108Z,100.00
2023-02-23T22:44:18.649Z,100.00
2023-02-23T22:46:47.955Z,100.00
2023-02-23T22:49:16.484Z,100.00
2023-02-23T22:51:44.793Z,100.00
2023-02-23T22:54:13.254Z,100.00
2023-02-23T22:56:42.930Z,100.00
2023-02-23T22:59:11.182Z,100.00
2023-02-23T23:01:39.944Z,100.00
2023-02-23T23:04:10.347Z,100.00
2023-02-23T23:06:39.962Z,100.00
2023-02-23T23:09:08.724Z,100.00
2023-02-23T23:11:37.309Z,100.00
2023-02-23T23:14:10.117Z,100.00
2023-02-23T23:16:40.620Z,100.00
2023-02-23T23:19:12.130Z,100.00
2023-02-23T23:21:41.511Z,100.00
2023-02-23T23:24:10.314Z,100.00
2023-02-23T23:26:39.762Z,100.00
2023-02-23T23:29:11.049Z,100.00
2023-02-23T23:31:39.555Z,100.00
2023-02-23T23:34:09.309Z,100.00
2023-02-23T23:36:42.795Z,100.00
2023-02-23T23:39:12.905Z,100.00
2023-02-23T23:41:42.974Z,100.00
2023-02-23T23:44:13.118Z,100.00
2023-02-23T23:46:43.322Z,100.00
2023-02-23T23:49:12.975Z,100.00
2023-02-23T23:51:44.787Z,100.00
2023-02-23T23:54:14.458Z,100.00
2023-02-23T23:56:43.538Z,100.00
2023-02-23T23:59:16.323Z,100.00
